Time;durP1;ratioP1;P1;durP2;ratioP2;P2;SDS_P1;SDS_P2;PMS_P1;PMS_P2;Temp;Humidity;BMP_temperature;BMP_pressure;BME280_temperature;BME280_humidity;BME280_pressure;Samples;Min_cycle;Max_cycle;Signal;HPM_P1;HPM_P2
2021/03/13 00:01:09;;;;;;;39.10;22.33;;;;;;;-1.23;89.69;92664.98;1844539;77;21053;-81
2021/03/13 00:03:37;;;;;;;24.23;15.13;;;;;;;-1.23;89.92;92660.98;1819285;76;21585;-83
2021/03/13 00:06:07;;;;;;;26.93;16.93;;;;;;;-1.18;90.08;92655.96;1864365;77;21363;-80
2021/03/13 00:08:37;;;;;;;38.43;23.53;;;;;;;-1.16;90.02;92659.85;1857335;75;21487;-83
2021/03/13 00:11:08;;;;;;;57.20;33.83;;;;;;;-1.11;90.00;92661.49;1824153;77;21053;-81
2021/03/13 00:13:38;;;;;;;64.40;41.75;;;;;;;-1.08;89.71;92657.59;1841052;74;21073;-82
2021/03/13 00:16:07;;;;;;;92.95;51.48;;;;;;;-1.08;89.32;92656.81;1847032;77;21061;-81
2021/03/13 00:18:36;;;;;;;108.60;56.53;;;;;;;-1.10;89.19;92658.47;1812006;79;21329;-83
2021/03/13 00:21:06;;;;;;;79.33;43.30;;;;;;;-1.15;88.99;92650.72;1812163;79;21488;-80
2021/03/13 00:23:34;;;;;;;86.37;48.27;;;;;;;-1.22;89.04;92653.97;1811972;79;21053;-81
2021/03/13 00:26:02;;;;;;;86.60;49.40;;;;;;;-1.31;89.21;92648.02;1811939;79;21084;-82
2021/03/13 00:28:30;;;;;;;98.73;53.67;;;;;;;-1.32;89.41;92652.34;1812004;79;21096;-82
2021/03/13 00:30:58;;;;;;;102.67;55.73;;;;;;;-1.33;89.53;92642.23;1812070;79;22490;-81
2021/03/13 00:33:35;;;;;;;92.33;51.93;;;;;;;-1.33;89.37;92650.80;1812625;76;21120;-84
2021/03/13 00:35:56;;;;;;;75.47;43.20;;;;;;;-1.39;89.24;92650.80;1862197;77;21036;-82
2021/03/13 00:38:25;;;;;;;73.77;41.47;;;;;;;-1.44;89.50;92638.48;1821356;77;21052;-81
2021/03/13 00:40:53;;;;;;;95.67;53.40;;;;;;;-1.48;89.71;92645.05;1812018;79;21092;-80
2021/03/13 00:43:21;;;;;;;84.97;47.07;;;;;;;-1.47;89.91;92643.96;1812050;79;22718;-82
2021/03/13 00:45:49;;;;;;;74.93;43.00;;;;;;;-1.47;89.98;92642.62;1812011;79;21369;-79
2021/03/13 00:48:17;;;;;;;32.10;20.53;;;;;;;-1.43;89.91;92636.03;1812066;79;21069;-81
2021/03/13 00:50:46;;;;;;;74.47;40.53;;;;;;;-1.46;89.86;92634.06;1854854;76;21032;-81
2021/03/13 00:53:14;;;;;;;78.17;46.20;;;;;;;-1.48;90.01;92638.39;1825219;77;21025;-79
2021/03/13 00:55:42;;;;;;;48.80;30.97;;;;;;;-1.52;89.98;92638.84;1837923;77;21165;-81
2021/03/13 00:58:12;;;;;;;42.57;24.93;;;;;;;-1.55;90.05;92640.08;1864160;76;21087;-83
2021/03/13 01:00:45;;;;;;;90.03;49.47;;;;;;;-1.51;90.35;92633.73;1858478;77;21080;-83
2021/03/13 01:03:14;;;;;;;96.40;51.63;;;;;;;-1.50;90.16;92632.63;1815843;79;21029;-81
2021/03/13 01:05:42;;;;;;;98.63;54.43;;;;;;;-1.52;90.01;92632.74;1858640;74;21100;-80
2021/03/13 01:08:12;;;;;;;89.90;50.33;;;;;;;-1.54;89.99;92630.42;1829584;77;21274;-81
2021/03/13 01:10:43;;;;;;;88.43;48.83;;;;;;;-1.56;89.91;92628.64;1833885;76;21135;-82
2021/03/13 01:13:12;;;;;;;80.93;45.63;;;;;;;-1.56;89.97;92634.53;1855340;77;21538;-81
2021/03/13 01:15:43;;;;;;;87.37;46.70;;;;;;;-1.57;89.83;92639.09;1863156;77;21099;-83
2021/03/13 01:18:12;;;;;;;89.23;47.43;;;;;;;-1.57;90.01;92640.99;1812041;79;21129;-79
2021/03/13 01:20:41;;;;;;;90.47;48.37;;;;;;;-1.54;90.02;92645.66;1811870;79;22357;-79
2021/03/13 01:23:10;;;;;;;105.67;51.70;;;;;;;-1.52;89.95;92638.08;1811993;79;21603;-78
2021/03/13 01:25:39;;;;;;;108.70;57.63;;;;;;;-1.51;89.83;92639.06;1811891;79;21207;-80
2021/03/13 01:28:07;;;;;;;91.77;47.07;;;;;;;-1.50;89.68;92632.63;1779108;80;21126;-82
2021/03/13 01:30:36;;;;;;;101.73;55.33;;;;;;;-1.53;89.64;92624.53;1777698;80;21063;-84
2021/03/13 01:33:05;;;;;;;99.27;54.10;;;;;;;-1.56;89.71;92626.53;1778637;80;22361;-80
2021/03/13 01:35:34;;;;;;;93.93;50.40;;;;;;;-1.57;89.76;92623.66;1806150;79;21525;-82
2021/03/13 01:38:02;;;;;;;80.97;44.20;;;;;;;-1.58;89.61;92629.55;1799518;78;21118;-80
2021/03/13 01:40:31;;;;;;;96.53;52.83;;;;;;;-1.64;89.54;92623.45;1791809;79;21181;-83
2021/03/13 01:42:59;;;;;;;92.80;50.97;;;;;;;-1.70;89.57;92621.56;1815210;78;21604;-81
2021/03/13 01:45:28;;;;;;;85.10;48.77;;;;;;;-1.72;89.86;92623.81;1781528;80;21434;-82
2021/03/13 01:47:57;;;;;;;94.27;50.60;;;;;;;-1.70;89.91;92628.23;1770042;80;21528;-83
2021/03/13 01:50:26;;;;;;;95.53;48.33;;;;;;;-1.69;89.90;92636.47;1790884;79;21074;-80
2021/03/13 01:52:54;;;;;;;87.57;46.27;;;;;;;-1.68;89.92;92630.02;1834929;76;21233;-82
2021/03/13 01:55:24;;;;;;;91.33;48.63;;;;;;;-1.66;89.91;92633.66;1810639;78;21496;-82
2021/03/13 01:57:54;;;;;;;89.73;48.07;;;;;;;-1.64;89.95;92629.56;1780680;77;21534;-79
2021/03/13 02:00:25;;;;;;;81.63;44.73;;;;;;;-1.63;89.76;92627.11;1852582;77;21483;-83
2021/03/13 02:02:58;;;;;;;88.52;49.18;;;;;;;-1.64;89.76;92631.45;1817617;77;21038;-83
2021/03/13 02:05:29;;;;;;;97.40;54.53;;;;;;;-1.59;89.97;92625.88;1812085;79;21037;-79
2021/03/13 02:08:24;;;;;;;91.93;49.03;;;;;;;-1.55;89.71;92628.08;1811952;79;21061;-82
2021/03/13 02:11:05;;;;;;;82.60;42.83;;;;;;;-1.55;89.51;92634.19;1831829;77;22426;-78
2021/03/13 02:13:47;;;;;;;92.87;51.00;;;;;;;-1.59;89.65;92644.53;1850329;77;21500;-79
2021/03/13 02:16:44;;;;;;;58.73;32.47;;;;;;;-1.54;89.58;92634.98;1817360;79;22915;-76
2021/03/13 02:19:35;;;;;;;42.80;26.63;;;;;;;-1.61;89.31;92638.78;1761443;80;22409;-76
2021/03/13 02:22:09;;;;;;;37.13;19.63;;;;;;;-1.74;89.51;92636.69;1825372;78;21383;-76
2021/03/13 02:24:46;;;;;;;31.02;17.00;;;;;;;-1.74;89.95;92637.45;1786260;79;21161;-76
2021/03/13 02:27:32;;;;;;;18.70;11.83;;;;;;;-1.73;90.13;92631.56;1799778;77;21067;-76
2021/03/13 02:30:04;;;;;;;13.60;9.23;;;;;;;-1.75;90.04;92634.58;1831446;76;21167;-76
2021/03/13 02:32:42;;;;;;;22.10;14.37;;;;;;;-1.77;90.25;92638.16;1782320;79;21069;-76
2021/03/13 02:35:18;;;;;;;15.70;10.33;;;;;;;-1.76;90.19;92639.70;1788533;80;21483;-76
2021/03/13 02:37:53;;;;;;;9.03;6.23;;;;;;;-1.76;90.13;92646.92;1787122;80;21088;-76
2021/03/13 02:40:25;;;;;;;9.73;7.17;;;;;;;-1.74;90.38;92640.13;1864679;76;20996;-75
2021/03/13 02:42:56;;;;;;;9.53;6.27;;;;;;;-1.77;90.49;92644.02;1893425;75;21459;-76
2021/03/13 02:45:28;;;;;;;13.20;8.17;;;;;;;-1.77;90.69;92644.81;1813959;78;21585;-77
2021/03/13 02:47:56;;;;;;;9.60;5.93;;;;;;;-1.74;90.82;92642.02;1788654;80;21362;-76
2021/03/13 02:50:27;;;;;;;7.53;5.93;;;;;;;-1.71;90.76;92643.45;1808059;79;21229;-76
2021/03/13 02:52:56;;;;;;;10.53;6.40;;;;;;;-1.73;90.47;92637.70;1786492;80;21123;-76
2021/03/13 02:55:25;;;;;;;8.30;5.80;;;;;;;-1.78;90.46;92637.91;1788632;80;21618;-76
2021/03/13 02:57:56;;;;;;;6.70;5.17;;;;;;;-1.77;90.65;92635.48;1795976;78;21099;-77
2021/03/13 03:00:26;;;;;;;7.10;5.73;;;;;;;-1.77;90.63;92639.48;1788654;80;22304;-76
2021/03/13 03:02:56;;;;;;;7.13;5.67;;;;;;;-1.82;90.40;92637.59;1820866;78;21198;-77
2021/03/13 03:05:27;;;;;;;10.23;6.57;;;;;;;-1.84;90.61;92629.95;1788606;78;21128;-77
2021/03/13 03:07:58;;;;;;;10.70;6.73;;;;;;;-1.90;90.63;92627.28;1795946;78;21124;-77
2021/03/13 03:10:31;;;;;;;7.07;5.63;;;;;;;-1.91;91.03;92627.63;1788660;79;21131;-77
2021/03/13 03:13:00;;;;;;;7.53;5.47;;;;;;;-1.89;90.98;92633.39;1795939;78;21270;-75
2021/03/13 03:15:31;;;;;;;12.27;8.97;;;;;;;-1.93;91.08;92631.95;1788535;80;21167;-78
2021/03/13 03:18:17;;;;;;;10.73;7.63;;;;;;;-1.90;91.05;92629.17;1820929;78;21115;-77
2021/03/13 03:20:49;;;;;;;8.27;5.90;;;;;;;-1.93;90.72;92626.62;1788649;79;21571;-77
2021/03/13 03:23:17;;;;;;;8.73;6.17;;;;;;;-1.96;90.65;92630.75;1820975;78;21578;-76
2021/03/13 03:25:45;;;;;;;8.00;6.30;;;;;;;-2.00;90.70;92629.84;1788377;80;21373;-75
2021/03/13 03:28:15;;;;;;;7.07;5.67;;;;;;;-1.98;90.87;92628.19;1820287;78;21491;-77
2021/03/13 03:30:47;;;;;;;7.47;5.90;;;;;;;-1.94;91.04;92622.41;1787466;80;21760;-75
2021/03/13 03:33:16;;;;;;;81.63;44.70;;;;;;;-1.89;91.13;92628.06;1820383;78;21515;-76
2021/03/13 03:35:46;;;;;;;91.33;49.07;;;;;;;-1.88;90.74;92636.27;1803743;76;21055;-77
2021/03/13 03:38:15;;;;;;;88.97;47.80;;;;;;;-1.89;90.59;92629.39;1885893;76;22207;-76
2021/03/13 03:40:45;;;;;;;78.47;42.60;;;;;;;-1.92;90.38;92624.17;1796494;79;21103;-75
2021/03/13 03:43:40;;;;;;;95.43;47.63;;;;;;;-1.90;90.59;92621.95;1871411;76;21151;-76
2021/03/13 03:46:08;;;;;;;91.10;45.07;;;;;;;-1.89;90.48;92624.83;1786416;77;21179;-76
2021/03/13 03:48:39;;;;;;;85.80;43.57;;;;;;;-1.89;90.30;92628.06;1814559;78;21536;-76
2021/03/13 03:51:11;;;;;;;72.53;39.40;;;;;;;-1.90;90.31;92629.17;1792906;80;21357;-76
2021/03/13 03:53:44;;;;;;;55.37;30.80;;;;;;;-1.92;90.16;92626.83;1797209;77;21373;-76
2021/03/13 03:56:12;;;;;;;47.70;27.77;;;;;;;-1.92;90.29;92621.50;1901712;75;21347;-76
2021/03/13 03:58:44;;;;;;;61.17;32.73;;;;;;;-1.88;90.58;92626.41;1894140;75;21024;-76
2021/03/13 04:01:13;;;;;;;69.63;37.93;;;;;;;-1.83;90.50;92622.17;1799379;78;21057;-77
2021/03/13 04:03:56;;;;;;;73.30;38.40;;;;;;;-1.84;90.15;92628.62;1786404;79;21410;-76
2021/03/13 04:06:24;;;;;;;79.43;40.37;;;;;;;-1.88;89.88;92621.08;1818722;75;21479;-77
2021/03/13 04:08:59;;;;;;;65.30;36.80;;;;;;;-1.93;89.87;92627.95;1886945;74;21247;-78
2021/03/13 04:11:27;;;;;;;60.33;33.90;;;;;;;-1.90;89.90;92630.51;1830688;78;21114;-76
2021/03/13 04:13:57;;;;;;;61.13;33.50;;;;;;;-1.89;89.92;92634.72;1864601;77;21051;-76
2021/03/13 04:16:28;;;;;;;66.77;38.47;;;;;;;-1.90;89.88;92641.17;1836277;76;21780;-76
2021/03/13 04:18:58;;;;;;;67.00;36.87;;;;;;;-1.89;89.98;92634.72;1884959;75;21534;-78
2021/03/13 04:21:27;;;;;;;65.23;37.27;;;;;;;-1.86;89.98;92638.05;1835939;76;21132;-75
2021/03/13 04:23:55;;;;;;;67.47;36.77;;;;;;;-1.87;89.76;92634.61;1799733;76;21598;-76
2021/03/13 04:26:23;;;;;;;57.33;32.73;;;;;;;-1.89;89.62;92644.81;1885859;76;21021;-76
2021/03/13 04:28:51;;;;;;;49.53;28.70;;;;;;;-1.89;89.64;92642.71;1777618;78;22067;-76
2021/03/13 04:31:24;;;;;;;53.63;29.73;;;;;;;-1.91;89.56;92648.95;1857273;76;21566;-76
2021/03/13 04:33:53;;;;;;;42.53;22.17;;;;;;;-1.93;89.70;92647.16;1889864;75;21141;-77
2021/03/13 04:36:20;;;;;;;31.13;18.80;;;;;;;-1.91;89.79;92643.63;1840813;76;21467;-76
2021/03/13 04:38:48;;;;;;;33.00;18.97;;;;;;;-1.95;89.54;92646.18;1881634;76;21091;-76
2021/03/13 04:41:16;;;;;;;26.93;16.07;;;;;;;-1.99;89.76;92659.95;1797288;79;21328;-76
2021/03/13 04:43:45;;;;;;;27.73;15.60;;;;;;;-1.98;89.83;92655.61;1855028;77;21162;-76
2021/03/13 04:46:13;;;;;;;18.20;12.53;;;;;;;-1.96;89.72;92656.59;1859104;75;21064;-76
2021/03/13 04:48:41;;;;;;;14.83;10.10;;;;;;;-1.94;89.56;92652.28;1845271;75;21086;-76
2021/03/13 04:51:09;;;;;;;13.07;7.50;;;;;;;-1.98;89.53;92645.52;1887310;75;21459;-76
2021/03/13 04:53:37;;;;;;;10.00;7.00;;;;;;;-1.99;89.63;92649.30;1829155;78;22040;-75
2021/03/13 04:56:05;;;;;;;13.40;9.23;;;;;;;-2.04;89.60;92644.17;1863670;76;21163;-76
2021/03/13 04:58:33;;;;;;;10.63;7.60;;;;;;;-2.13;89.78;92644.30;1892403;75;21036;-76
2021/03/13 05:01:01;;;;;;;10.27;6.87;;;;;;;-2.16;90.10;92641.53;1817947;77;21114;-76
2021/03/13 05:03:32;;;;;;;8.63;5.87;;;;;;;-2.16;90.36;92641.53;1818019;78;21491;-76
2021/03/13 05:06:00;;;;;;;22.37;14.53;;;;;;;-2.12;90.45;92639.75;1830145;75;21072;-76
2021/03/13 05:08:29;;;;;;;18.80;13.07;;;;;;;-2.13;90.51;92634.98;1901414;75;21526;-75
2021/03/13 05:10:57;;;;;;;11.03;8.27;;;;;;;-2.10;90.51;92637.54;1803507;77;21546;-75
2021/03/13 05:13:25;;;;;;;8.93;6.17;;;;;;;-2.05;90.56;92635.41;1877360;75;21139;-76
2021/03/13 05:15:53;;;;;;;9.13;5.37;;;;;;;-1.96;90.41;92632.61;1895724;75;21063;-75
2021/03/13 05:18:21;;;;;;;6.27;4.87;;;;;;;-1.92;90.18;92622.84;1890954;75;21771;-76
2021/03/13 05:20:49;;;;;;;6.73;5.37;;;;;;;-1.94;90.06;92618.97;1864536;76;21119;-76
2021/03/13 05:23:17;;;;;;;6.77;5.30;;;;;;;-1.93;90.12;92623.19;1894545;75;21211;-77
2021/03/13 05:25:45;;;;;;;7.87;6.07;;;;;;;-1.90;90.14;92619.85;1888428;76;21546;-76
2021/03/13 05:28:13;;;;;;;9.87;6.03;;;;;;;-1.85;90.11;92615.61;1864566;76;21083;-77
2021/03/13 05:30:41;;;;;;;7.70;5.80;;;;;;;-1.81;90.08;92617.26;1864670;76;22218;-77
2021/03/13 05:33:11;;;;;;;7.27;5.63;;;;;;;-1.75;90.15;92613.81;1886366;75;21049;-77
2021/03/13 05:35:40;;;;;;;15.50;8.57;;;;;;;-1.69;90.21;92615.14;1828916;78;21183;-79
2021/03/13 05:38:08;;;;;;;21.77;11.43;;;;;;;-1.63;90.22;92621.00;1850480;77;21096;-76
2021/03/13 05:40:36;;;;;;;19.00;11.27;;;;;;;-1.58;90.08;92614.09;1849876;75;21557;-76
2021/03/13 05:43:04;;;;;;;23.20;13.60;;;;;;;-1.52;90.05;92614.08;1889594;75;22430;-79
2021/03/13 05:45:33;;;;;;;22.47;14.10;;;;;;;-1.46;89.95;92610.06;1838579;75;21063;-77
2021/03/13 05:48:02;;;;;;;21.97;14.37;;;;;;;-1.41;89.85;92619.15;1885547;74;21025;-77
2021/03/13 05:50:30;;;;;;;22.87;15.57;;;;;;;-1.36;89.82;92620.80;1830731;78;21063;-76
2021/03/13 05:52:58;;;;;;;28.77;18.40;;;;;;;-1.32;89.66;92630.44;1794792;78;21128;-75
2021/03/13 05:55:26;;;;;;;31.87;18.90;;;;;;;-1.32;89.45;92625.10;1832909;75;21789;-75
2021/03/13 05:57:54;;;;;;;31.53;19.37;;;;;;;-1.34;89.42;92632.68;1888688;75;20933;-74
2021/03/13 06:00:23;;;;;;;26.10;16.27;;;;;;;-1.37;89.53;92620.02;1825671;77;21107;-75
2021/03/13 06:02:51;;;;;;;27.20;17.37;;;;;;;-1.43;89.72;92624.03;1786389;80;21069;-76
2021/03/13 06:05:19;;;;;;;22.70;14.83;;;;;;;-1.52;90.15;92619.41;1788000;80;21139;-75
2021/03/13 06:07:47;;;;;;;23.60;14.23;;;;;;;-1.57;90.65;92623.66;1864336;76;22316;-75
2021/03/13 06:10:15;;;;;;;24.97;14.80;;;;;;;-1.55;90.83;92622.19;1852160;76;21138;-76
2021/03/13 06:12:44;;;;;;;22.67;14.47;;;;;;;-1.47;90.82;92629.83;1823831;77;21069;-75
2021/03/13 06:15:13;;;;;;;29.60;18.47;;;;;;;-1.28;91.23;92637.20;1829315;75;21059;-75
2021/03/13 06:17:55;;;;;;;29.45;17.80;;;;;;;-1.01;91.53;92632.43;1836649;78;21027;-76
2021/03/13 06:20:38;;;;;;;32.00;19.97;;;;;;;-0.66;90.26;92629.11;1796974;78;22355;-76
2021/03/13 06:23:15;;;;;;;31.10;20.40;;;;;;;-0.31;90.91;92631.86;1825198;78;21554;-76
2021/03/13 06:25:45;;;;;;;27.65;18.23;;;;;;;0.18;90.31;92644.81;1803693;78;21633;-76
2021/03/13 06:28:20;;;;;;;15.83;11.18;;;;;;;0.60;87.63;92646.07;1818158;77;21064;-76
2021/03/13 06:30:51;;;;;;;;;;;;;;;0.97;86.48;92642.42;1874807;76;21074;-77
2021/03/13 06:33:34;;;;;;;24.67;16.85;;;;;;;1.51;85.81;92654.13;1827511;76;21195;-76
2021/03/13 06:36:04;;;;;;;19.32;13.30;;;;;;;1.95;80.45;92642.39;1864445;77;21052;-76
2021/03/13 06:38:36;;;;;;;23.22;14.93;;;;;;;2.17;78.00;92649.62;1830707;77;21039;-76
2021/03/13 06:41:17;;;;;;;25.75;15.93;;;;;;;2.18;76.97;92647.17;1831506;77;21068;-77
2021/03/13 06:43:47;;;;;;;28.17;18.07;;;;;;;2.02;76.50;92641.16;1807180;79;21145;-78
2021/03/13 06:46:20;;;;;;;25.23;17.17;;;;;;;1.76;77.58;92640.56;1786048;79;21205;-76
2021/03/13 06:48:53;;;;;;;25.00;16.87;;;;;;;1.74;78.55;92639.39;1802068;75;21059;-76
2021/03/13 06:51:38;;;;;;;20.57;13.98;;;;;;;1.75;78.14;92644.38;1885753;76;21099;-76
2021/03/13 06:54:15;;;;;;;23.02;14.53;;;;;;;1.81;79.03;92628.78;1794161;79;21138;-76
2021/03/13 06:56:50;;;;;;;20.82;13.75;;;;;;;2.03;77.86;92652.12;1863788;75;21466;-78
2021/03/13 06:59:24;;;;;;;22.58;15.48;;;;;;;2.15;77.41;92643.87;1890274;75;21155;-77
2021/03/13 07:02:10;;;;;;;22.80;14.83;;;;;;;2.28;76.57;92657.07;1805119;78;21496;-79
2021/03/13 07:04:43;;;;;;;27.42;18.42;;;;;;;2.28;76.12;92644.42;1786376;79;21136;-78
2021/03/13 07:07:29;;;;;;;25.20;15.93;;;;;;;2.23;76.18;92648.00;1787171;76;21506;-78
2021/03/13 07:09:58;;;;;;;19.30;13.95;;;;;;;2.17;76.73;92648.29;1885610;75;21047;-78
2021/03/13 07:12:30;;;;;;;21.82;15.40;;;;;;;2.27;77.36;92651.50;1830823;78;21558;-79
2021/03/13 07:15:27;;;;;;;22.52;15.63;;;;;;;2.43;77.28;92652.87;1864039;76;21174;-78
2021/03/13 07:18:00;;;;;;;21.00;14.28;;;;;;;2.71;76.37;92656.31;1828799;76;21139;-79
2021/03/13 07:20:33;;;;;;;13.62;9.63;;;;;;;3.08;75.54;92647.75;1893222;75;21545;-78
2021/03/13 07:23:03;;;;;;;16.10;10.80;;;;;;;3.53;73.08;92649.20;1864686;76;21031;-78
2021/03/13 07:25:31;;;;;;;14.75;10.20;;;;;;;3.94;70.82;92653.22;1864263;77;21421;-79
2021/03/13 07:28:01;;;;;;;13.05;10.25;;;;;;;4.09;70.37;92651.62;1876085;76;21242;-78
2021/03/13 07:30:30;;;;;;;14.40;9.70;;;;;;;4.16;70.44;92653.59;1797139;79;21124;-78
2021/03/13 07:33:08;;;;;;;12.98;9.00;;;;;;;4.28;68.99;92644.45;1862648;76;21245;-80
2021/03/13 07:35:41;;;;;;;11.83;8.25;;;;;;;4.27;66.98;92637.53;1835719;76;21543;-78
2021/03/13 07:38:11;;;;;;;10.48;8.35;;;;;;;4.32;67.35;92645.25;1809268;79;21562;-81
2021/03/13 07:40:44;;;;;;;9.85;7.53;;;;;;;4.38;66.66;92640.50;1858652;75;21067;-76
2021/03/13 07:43:14;;;;;;;12.30;9.05;;;;;;;4.43;66.22;92648.78;1898425;75;21040;-77
2021/03/13 07:45:44;;;;;;;11.45;7.83;;;;;;;4.41;65.96;92643.59;1888422;75;21047;-78
2021/03/13 07:48:12;;;;;;;12.13;8.45;;;;;;;4.35;67.53;92645.27;1864739;77;21048;-78
2021/03/13 07:50:41;;;;;;;12.03;8.40;;;;;;;4.45;66.23;92651.89;1801829;77;21360;-78
2021/03/13 07:53:09;;;;;;;9.48;6.78;;;;;;;4.56;65.70;92660.04;1790505;79;21200;-77
2021/03/13 07:55:37;;;;;;;10.72;7.35;;;;;;;4.63;65.74;92658.73;1786678;77;21562;-79
2021/03/13 07:58:08;;;;;;;11.08;7.67;;;;;;;4.89;63.98;92651.00;1886855;75;21147;-79
2021/03/13 08:00:44;;;;;;;8.93;6.45;;;;;;;4.95;61.91;92654.86;1811363;76;21525;-78
2021/03/13 08:03:35;;;;;;;8.40;6.35;;;;;;;4.95;61.91;92654.86;1796287;79;21308;-79
2021/03/13 08:06:08;;;;;;;14.68;7.12;;;;;;;5.03;64.40;92652.39;1820769;76;21221;-79
2021/03/13 08:08:50;;;;;;;10.08;6.95;;;;;;;5.43;63.31;92639.84;1854516;75;21617;-79
2021/03/13 08:11:20;;;;;;;8.13;6.55;;;;;;;5.69;62.43;92650.88;1829303;78;21124;-78
2021/03/13 08:13:54;;;;;;;7.50;6.17;;;;;;;5.87;60.08;92646.87;1836949;77;21107;-82
2021/03/13 08:16:37;;;;;;;6.95;6.12;;;;;;;6.01;60.59;92654.22;1848907;77;21225;-78
2021/03/13 08:19:27;;;;;;;6.78;5.80;;;;;;;6.15;58.61;92664.27;1820345;76;21111;-81
2021/03/13 08:22:10;;;;;;;5.95;5.17;;;;;;;6.11;59.43;92671.01;1884778;75;21158;-79
2021/03/13 08:24:46;;;;;;;6.92;5.60;;;;;;;5.99;59.29;92672.16;1869878;76;21572;-80
2021/03/13 08:27:42;;;;;;;8.00;6.60;;;;;;;6.08;59.95;92677.94;1816312;78;21087;-78
2021/03/13 08:30:23;;;;;;;;;;;;;;;6.17;59.07;92676.78;1892227;75;22248;-81
2021/03/13 08:33:06;;;;;;;7.22;5.83;;;;;;;6.20;58.60;92674.09;1890793;75;20217;-80
2021/03/13 08:35:44;;;;;;;7.53;5.87;;;;;;;6.26;58.50;92671.20;1854253;75;21150;-81
2021/03/13 08:38:13;;;;;;;7.83;6.25;;;;;;;6.28;58.26;92670.81;1787989;80;21068;-81
2021/03/13 08:40:44;;;;;;;7.55;5.87;;;;;;;6.37;58.60;92664.46;1807399;79;21070;-80
2021/03/13 08:43:34;;;;;;;7.45;6.00;;;;;;;6.54;58.34;92660.19;1786399;79;21076;-83
2021/03/13 08:46:03;;;;;;;7.10;6.05;;;;;;;6.69;57.71;92652.25;1735851;80;21084;-83
2021/03/13 08:51:30;;;;;;;6.33;5.72;;;;;;;7.10;54.54;92642.90;1840147;77;21166;-76
2021/03/13 08:53:57;;;;;;;5.45;4.28;;;;;;;7.12;51.27;92654.11;1878263;76;21136;-78
2021/03/13 08:56:44;;;;;;;5.83;4.72;;;;;;;6.87;52.25;92642.77;1819279;77;21354;-79
2021/03/13 08:59:15;;;;;;;5.85;4.78;;;;;;;6.80;53.83;92646.84;1846425;76;21545;-79
2021/03/13 09:01:48;;;;;;;7.37;5.03;;;;;;;7.15;52.49;92652.74;1768553;79;21459;-80
2021/03/13 09:04:16;;;;;;;6.35;5.28;;;;;;;7.39;52.76;92659.21;1872771;75;21581;-78
2021/03/13 09:06:45;;;;;;;5.25;4.75;;;;;;;7.65;51.04;92645.75;1783701;79;21171;-78
2021/03/13 09:09:16;;;;;;;6.12;5.15;;;;;;;7.73;50.46;92631.60;1873653;76;21143;-76
2021/03/13 09:11:45;;;;;;;5.50;4.60;;;;;;;7.68;49.02;92647.67;1843962;76;21071;-76
2021/03/13 09:14:13;;;;;;;7.87;4.80;;;;;;;7.61;48.63;92638.83;1795079;77;21064;-83
2021/03/13 09:16:41;;;;;;;5.33;4.72;;;;;;;7.46;50.76;92644.89;1856670;76;21175;-81
2021/03/13 09:19:12;;;;;;;5.05;4.58;;;;;;;7.48;50.19;92624.38;1780640;80;21108;-80
2021/03/13 09:21:50;;;;;;;4.92;4.42;;;;;;;7.66;48.73;92634.34;1854617;77;21338;-78
2021/03/13 09:24:24;;;;;;;4.28;3.87;;;;;;;7.75;47.64;92631.98;1817630;77;21555;-85
2021/03/13 09:26:57;;;;;;;4.30;3.80;;;;;;;7.69;48.04;92609.97;1874528;76;21051;-77
2021/03/13 09:29:33;;;;;;;4.22;3.83;;;;;;;7.43;48.26;92626.73;1851939;75;21167;-78
2021/03/13 09:32:08;;;;;;;4.37;3.90;;;;;;;7.30;50.59;92619.08;1827118;76;21033;-80
2021/03/13 09:34:42;;;;;;;8.38;4.65;;;;;;;7.42;50.03;92622.50;1869104;76;21348;-78
2021/03/13 09:37:18;;;;;;;4.62;3.98;;;;;;;7.43;48.23;92616.69;1818359;78;21167;-74
2021/03/13 09:39:49;;;;;;;5.65;3.92;;;;;;;7.23;47.74;92630.50;1888692;76;21040;-77
2021/03/13 09:42:27;;;;;;;5.05;3.83;;;;;;;6.88;47.55;92634.84;1873483;76;21080;-80
2021/03/13 09:47:55;;;;;;;4.53;3.50;;;;;;;6.49;51.38;92638.41;1872368;76;21262;-78
2021/03/13 09:50:34;;;;;;;4.30;3.40;;;;;;;6.61;50.02;92632.41;1850539;76;21054;-77
2021/03/13 09:53:04;;;;;;;3.77;3.12;;;;;;;6.66;50.17;92640.91;1873416;76;21457;-78
2021/03/13 09:55:32;;;;;;;4.05;3.08;;;;;;;6.56;48.79;92632.23;1873264;76;21153;-77
2021/03/13 09:58:03;;;;;;;3.98;3.52;;;;;;;6.28;48.52;92637.06;1873358;76;21098;-79
2021/03/13 10:00:40;;;;;;;5.25;4.00;;;;;;;5.94;50.50;92628.02;1873387;76;21481;-80
2021/03/13 10:03:14;;;;;;;5.87;4.10;;;;;;;5.81;52.34;92622.77;1877333;76;21114;-79
2021/03/13 10:05:45;;;;;;;5.17;3.50;;;;;;;5.87;51.54;92611.80;1865618;75;21509;-79
2021/03/13 10:08:14;;;;;;;4.15;3.37;;;;;;;5.84;52.13;92616.02;1763160;79;21072;-79
2021/03/13 10:10:47;;;;;;;5.75;3.77;;;;;;;5.77;51.19;92639.52;1869097;76;21065;-82
2021/03/13 10:13:17;;;;;;;6.15;3.52;;;;;;;5.66;52.39;92658.38;1829833;76;21510;-84
2021/03/13 10:15:45;;;;;;;5.35;3.05;;;;;;;5.53;53.20;92636.41;1845231;76;21081;-81
2021/03/13 10:18:20;;;;;;;4.50;3.58;;;;;;;5.44;53.68;92634.63;1872414;76;21133;-82
2021/03/13 10:20:53;;;;;;;3.92;3.42;;;;;;;5.42;53.96;92638.30;1872368;76;21533;-79
2021/03/13 10:23:30;;;;;;;6.70;3.92;;;;;;;5.45;53.26;92634.81;1873020;76;21133;-80
2021/03/13 10:26:15;;;;;;;5.25;3.77;;;;;;;5.54;55.05;92643.33;1804499;79;21297;-80
2021/03/13 10:28:46;;;;;;;4.43;3.30;;;;;;;5.72;54.81;92637.98;1862419;76;21070;-79
2021/03/13 10:31:24;;;;;;;5.10;3.60;;;;;;;5.95;54.31;92628.79;1873202;76;21142;-79
2021/03/13 10:33:54;;;;;;;5.60;3.17;;;;;;;6.06;51.83;92637.66;1873252;76;21046;-77
2021/03/13 10:36:44;;;;;;;4.28;3.37;;;;;;;6.01;51.72;92643.42;1854954;76;21072;-77
2021/03/13 10:39:12;;;;;;;5.25;3.45;;;;;;;5.91;52.29;92645.53;1828263;76;21481;-79
2021/03/13 10:41:54;;;;;;;4.90;3.45;;;;;;;5.94;52.85;92622.63;1872832;76;21098;-78
2021/03/13 10:44:21;;;;;;;3.70;3.10;;;;;;;6.01;51.88;92623.19;1814421;79;21491;-76
2021/03/13 10:46:49;;;;;;;4.47;3.72;;;;;;;6.04;51.31;92627.23;1866233;76;21496;-77
2021/03/13 10:49:24;;;;;;;4.30;3.90;;;;;;;6.06;52.66;92630.33;1873427;76;21121;-74
2021/03/13 10:51:53;;;;;;;6.97;3.80;;;;;;;6.06;51.30;92635.73;1844505;76;22242;-77
2021/03/13 10:54:28;;;;;;;4.55;3.20;;;;;;;5.98;51.12;92636.89;1830281;76;21046;-76
2021/03/13 10:57:13;;;;;;;3.98;3.27;;;;;;;5.82;51.07;92628.34;1873707;75;21043;-82
2021/03/13 10:59:43;;;;;;;6.17;3.72;;;;;;;5.43;51.99;92641.19;1873489;76;21062;-78
2021/03/13 11:02:11;;;;;;;5.20;3.27;;;;;;;5.24;53.32;92624.76;1804567;79;21218;-76
2021/03/13 11:04:41;;;;;;;3.45;3.02;;;;;;;5.27;51.31;92636.14;1858640;76;22030;-78
2021/03/13 11:07:09;;;;;;;4.33;3.45;;;;;;;5.33;53.21;92623.81;1839695;76;21148;-77
2021/03/13 11:09:37;;;;;;;6.42;3.90;;;;;;;5.45;52.58;92601.11;1834625;76;21134;-76
2021/03/13 11:12:06;;;;;;;5.83;3.50;;;;;;;5.48;50.38;92613.07;1873427;76;21035;-75
2021/03/13 11:14:35;;;;;;;4.62;3.62;;;;;;;5.42;52.15;92609.99;1873620;76;21049;-77
2021/03/13 11:17:03;;;;;;;5.30;3.47;;;;;;;5.31;51.52;92611.89;1873383;76;21221;-76
2021/03/13 11:19:32;;;;;;;3.42;3.02;;;;;;;5.24;51.16;92607.24;1873441;76;21054;-75
2021/03/13 11:22:00;;;;;;;5.25;3.33;;;;;;;5.20;52.32;92613.78;1873401;76;21093;-73
2021/03/13 11:24:29;;;;;;;3.60;3.27;;;;;;;5.20;51.14;92599.72;1873342;76;21109;-77
2021/03/13 11:26:57;;;;;;;3.50;3.12;;;;;;;5.29;52.89;92606.09;1873399;76;21130;-78
2021/03/13 11:29:25;;;;;;;3.30;2.92;;;;;;;5.41;53.46;92596.30;1873427;76;21793;-78
2021/03/13 11:31:53;;;;;;;4.55;3.45;;;;;;;5.58;53.08;92596.14;1873388;76;21114;-76
2021/03/13 11:34:21;;;;;;;5.12;3.50;;;;;;;5.72;51.70;92598.10;1873540;76;21038;-77
2021/03/13 11:36:49;;;;;;;5.15;3.37;;;;;;;5.79;51.09;92603.48;1873408;75;21094;-78
2021/03/13 11:39:17;;;;;;;5.83;3.27;;;;;;;5.74;51.81;92599.23;1866298;76;21917;-77
2021/03/13 11:41:47;;;;;;;6.12;3.52;;;;;;;5.67;51.49;92608.67;1810699;79;21348;-79
2021/03/13 11:44:16;;;;;;;3.87;3.20;;;;;;;5.58;52.58;92615.03;1870123;76;21043;-78
2021/03/13 11:46:44;;;;;;;5.40;3.85;;;;;;;5.51;51.01;92613.66;1830802;76;21073;-79
2021/03/13 11:49:12;;;;;;;4.15;3.12;;;;;;;5.42;51.43;92616.73;1843384;76;21173;-77
2021/03/13 11:51:40;;;;;;;4.17;3.30;;;;;;;5.37;52.96;92604.95;1857112;76;21099;-76
2021/03/13 11:54:09;;;;;;;4.92;3.77;;;;;;;5.31;51.36;92592.44;1817098;76;21539;-78
2021/03/13 11:56:37;;;;;;;5.45;3.90;;;;;;;5.23;53.47;92604.94;1873375;76;21145;-77